createdAt,value
2019-05-13T00:01:53.995Z,15.50
2019-05-13T00:04:21.500Z,15.50
2019-05-13T00:06:53.586Z,15.50
2019-05-13T00:09:17.947Z,15.50
2019-05-13T00:11:45.260Z,15.50
2019-05-13T00:14:13.448Z,15.50
2019-05-13T00:16:41.061Z,15.50
2019-05-13T00:19:08.405Z,15.50
2019-05-13T00:21:35.732Z,15.50
2019-05-13T00:24:04.083Z,15.50
2019-05-13T00:26:33.760Z,15.50
2019-05-13T00:29:01.134Z,15.50
2019-05-13T00:31:28.658Z,15.50
2019-05-13T00:33:56.212Z,15.50
2019-05-13T00:36:24.282Z,15.50
2019-05-13T00:38:53.427Z,15.50
2019-05-13T00:41:20.949Z,15.50
2019-05-13T00:43:48.183Z,15.50
2019-05-13T00:46:15.490Z,15.50
2019-05-13T00:48:43.929Z,15.50
2019-05-13T00:51:11.488Z,15.50
2019-05-13T00:53:41.318Z,15.50
2019-05-13T00:56:08.629Z,15.50
2019-05-13T00:58:35.962Z,15.50
2019-05-13T01:01:03.743Z,15.50
2019-05-13T01:03:33.625Z,15.50
2019-05-13T01:06:00.596Z,15.50
2019-05-13T01:08:27.918Z,15.50
2019-05-13T01:10:55.235Z,15.50
2019-05-13T01:13:23.795Z,15.50
2019-05-13T01:15:51.484Z,15.50
2019-05-13T01:18:18.913Z,15.50
2019-05-13T01:20:46.117Z,15.50
2019-05-13T01:23:14.096Z,15.50
2019-05-13T01:25:44.494Z,15.50
2019-05-13T01:28:13.630Z,15.50
2019-05-13T01:30:43.619Z,15.50
2019-05-13T01:33:10.588Z,15.50
2019-05-13T01:35:38.092Z,15.50
2019-05-13T01:38:05.286Z,15.50
2019-05-13T01:40:34.776Z,15.50
2019-05-13T01:43:03.606Z,15.50
2019-05-13T01:45:33.797Z,15.50
2019-05-13T01:48:01.317Z,15.50
2019-05-13T01:50:28.624Z,15.50
2019-05-13T01:52:56.154Z,15.50
2019-05-13T01:55:24.422Z,15.50
2019-05-13T01:57:53.321Z,15.50
2019-05-13T02:00:21.021Z,15.50
2019-05-13T02:02:48.332Z,15.50
2019-05-13T02:05:15.646Z,15.50
2019-05-13T02:07:57.089Z,15.50
2019-05-13T02:10:14.572Z,15.50
2019-05-13T02:12:44.299Z,15.50
2019-05-13T02:15:11.045Z,15.50
2019-05-13T02:17:39.177Z,15.50
2019-05-13T02:20:06.496Z,15.50
2019-05-13T02:22:33.822Z,15.50
2019-05-13T02:25:01.047Z,15.50
2019-05-13T02:27:28.379Z,15.50
2019-05-13T02:29:55.726Z,15.50
2019-05-13T02:32:23.589Z,15.50
2019-05-13T02:34:53.248Z,15.50
2019-05-13T02:37:23.215Z,15.50
2019-05-13T02:39:49.514Z,15.50
2019-05-13T02:42:16.855Z,15.50
2019-05-13T02:44:44.198Z,15.50
2019-05-13T02:47:12.390Z,15.50
2019-05-13T02:49:42.182Z,15.50
2019-05-13T02:52:09.031Z,15.50
2019-05-13T02:54:36.253Z,15.50
2019-05-13T02:57:04.089Z,15.50
2019-05-13T02:59:33.552Z,15.50
2019-05-13T03:02:03.661Z,15.50
2019-05-13T03:04:32.658Z,15.50
2019-05-13T03:06:58.883Z,15.50
2019-05-13T03:09:26.203Z,15.50
2019-05-13T03:11:53.928Z,15.50
2019-05-13T03:14:23.896Z,15.50
2019-05-13T03:16:56.132Z,15.50
2019-05-13T03:19:23.532Z,15.50
2019-05-13T03:21:52.455Z,15.50
2019-05-13T03:24:22.738Z,15.50
2019-05-13T03:26:49.053Z,15.50
2019-05-13T03:29:16.434Z,15.50
2019-05-13T03:31:46.505Z,15.50
2019-05-13T03:34:15.845Z,15.50
2019-05-13T03:36:45.891Z,15.50
2019-05-13T03:39:15.916Z,15.50
2019-05-13T03:41:42.357Z,15.50
2019-05-13T03:44:13.101Z,15.50
2019-05-13T03:46:42.310Z,15.50
2019-05-13T03:49:13.787Z,15.50
2019-05-13T03:51:42.843Z,15.50
2019-05-13T03:54:09.173Z,15.50
2019-05-13T03:56:36.615Z,15.50
2019-05-13T03:59:04.119Z,15.50
2019-05-13T04:01:32.568Z,15.50
2019-05-13T04:04:03.040Z,15.50
2019-05-13T04:06:32.089Z,15.50
2019-05-13T04:09:17.174Z,15.50
2019-05-13T04:11:27.414Z,15.50
2019-05-13T04:13:54.833Z,15.50
2019-05-13T04:16:23.705Z,15.50
2019-05-13T04:18:53.623Z,15.50
2019-05-13T04:21:22.769Z,15.50
2019-05-13T04:23:53.006Z,15.50
2019-05-13T04:26:23.167Z,15.50
2019-05-13T04:28:52.629Z,15.50
2019-05-13T04:31:22.434Z,15.50
2019-05-13T04:33:48.894Z,15.50
2019-05-13T04:36:17.196Z,15.50
2019-05-13T04:38:45.069Z,15.50
2019-05-13T04:41:12.455Z,15.50
2019-05-13T04:43:43.433Z,15.50
2019-05-13T04:46:13.609Z,15.50
2019-05-13T04:48:43.859Z,15.50
2019-05-13T04:51:13.169Z,15.50
2019-05-13T04:53:42.072Z,15.50
2019-05-13T04:56:13.256Z,15.50
2019-05-13T04:58:42.491Z,15.50
2019-05-13T05:01:59.392Z,15.50
2019-05-13T05:04:52.450Z,15.50
2019-05-13T05:07:56.094Z,15.50
2019-05-13T05:10:54.028Z,15.40
2019-05-13T05:13:38.756Z,15.40
2019-05-13T05:16:21.817Z,15.40
2019-05-13T05:19:06.471Z,15.40
2019-05-13T05:21:41.724Z,15.40
2019-05-13T05:24:52.069Z,15.40
2019-05-13T05:28:06.702Z,15.40
2019-05-13T05:31:11.678Z,15.40
2019-05-13T05:34:11.566Z,15.40
2019-05-13T05:36:57.939Z,15.40
2019-05-13T05:39:25.759Z,15.40
2019-05-13T05:41:54.796Z,15.40
2019-05-13T05:44:23.594Z,15.40
2019-05-13T05:46:52.449Z,15.40
2019-05-13T05:49:21.384Z,15.40
2019-05-13T05:51:51.288Z,15.40
2019-05-13T05:54:18.051Z,15.50
2019-05-13T05:56:45.354Z,15.40
2019-05-13T05:59:12.770Z,15.50
2019-05-13T06:01:42.124Z,15.50
2019-05-13T06:04:12.643Z,15.50
2019-05-13T06:06:41.534Z,15.50
2019-05-13T06:09:09.072Z,15.50
2019-05-13T06:11:36.533Z,15.50
2019-05-13T06:14:04.349Z,15.50
2019-05-13T06:16:32.202Z,15.50
2019-05-13T06:19:01.399Z,15.50
2019-05-13T06:21:28.605Z,15.50
2019-05-13T06:23:56.013Z,15.50
2019-05-13T06:26:23.814Z,15.50
2019-05-13T06:28:52.070Z,15.50
2019-05-13T06:31:21.482Z,15.50
2019-05-13T06:33:48.613Z,15.50
2019-05-13T06:36:15.930Z,15.50
2019-05-13T06:38:44.350Z,15.50
2019-05-13T06:41:14.581Z,15.50
2019-05-13T06:43:41.837Z,15.50
2019-05-13T06:46:09.482Z,15.50
2019-05-13T06:48:36.809Z,15.50
2019-05-13T06:51:04.341Z,15.50
2019-05-13T06:53:32.236Z,15.50
2019-05-13T06:56:01.529Z,15.50
2019-05-13T06:58:28.805Z,15.50
2019-05-13T07:00:58.083Z,15.50
2019-05-13T07:03:25.301Z,15.50
2019-05-13T07:05:52.849Z,15.50
2019-05-13T07:08:22.175Z,15.50
2019-05-13T07:10:51.412Z,15.50
2019-05-13T07:13:18.488Z,15.50
2019-05-13T07:15:45.826Z,15.50
2019-05-13T07:18:16.115Z,15.50
2019-05-13T07:20:43.248Z,15.50
2019-05-13T07:23:12.111Z,15.50
2019-05-13T07:25:42.002Z,15.50
2019-05-13T07:28:08.790Z,15.50
2019-05-13T07:30:38.665Z,15.50
2019-05-13T07:33:05.974Z,15.50
2019-05-13T07:35:37.850Z,15.50
2019-05-13T07:38:02.715Z,15.50
2019-05-13T07:40:32.193Z,15.50
2019-05-13T07:43:01.569Z,15.50
2019-05-13T07:45:31.456Z,15.50
2019-05-13T07:47:58.142Z,15.50
2019-05-13T07:51:04.535Z,15.50
2019-05-13T07:53:32.206Z,15.50
2019-05-13T07:56:01.926Z,15.50
2019-05-13T07:58:29.154Z,15.50
2019-05-13T08:00:56.578Z,15.50
2019-05-13T08:03:23.885Z,15.50
2019-05-13T08:05:51.379Z,15.50
2019-05-13T08:08:18.733Z,15.50
2019-05-13T08:10:46.074Z,15.50
2019-05-13T08:13:13.403Z,15.50
2019-05-13T08:15:42.038Z,15.50
2019-05-13T08:18:12.195Z,15.50
2019-05-13T08:20:41.767Z,15.50
2019-05-13T08:23:08.377Z,15.50
2019-05-13T08:25:35.934Z,15.50
2019-05-13T08:28:03.242Z,15.50
2019-05-13T08:30:31.871Z,15.50
2019-05-13T08:33:01.564Z,15.50
2019-05-13T08:35:31.337Z,15.50
2019-05-13T08:37:58.013Z,15.50
2019-05-13T08:40:25.398Z,15.50
2019-05-13T08:42:52.749Z,15.50
2019-05-13T08:45:22.397Z,15.50
2019-05-13T08:47:51.216Z,15.50
2019-05-13T08:51:55.460Z,15.50
2019-05-13T08:54:22.810Z,15.50
2019-05-13T08:56:52.038Z,15.50
2019-05-13T08:59:19.410Z,15.50
2019-05-13T09:01:47.137Z,15.50
2019-05-13T09:04:14.569Z,15.50
2019-05-13T09:06:42.072Z,15.50
2019-05-13T09:09:11.513Z,15.50
2019-05-13T09:11:39.157Z,15.50
2019-05-13T09:14:06.365Z,15.50
2019-05-13T09:16:33.708Z,15.50
2019-05-13T09:19:03.666Z,15.50
2019-05-13T09:21:31.817Z,15.50
2019-05-13T09:23:59.118Z,15.50
2019-05-13T09:26:26.414Z,15.50
2019-05-13T09:28:53.711Z,15.50
2019-05-13T09:31:22.114Z,15.50
2019-05-13T09:33:51.890Z,15.50
2019-05-13T09:36:18.702Z,15.50
2019-05-13T09:38:45.926Z,15.50
2019-05-13T09:41:13.261Z,15.50
2019-05-13T09:43:42.022Z,15.50
2019-05-13T09:46:11.715Z,15.50
2019-05-13T09:48:42.380Z,15.50
2019-05-13T09:51:09.443Z,15.50
2019-05-13T09:53:38.121Z,15.50
2019-05-13T09:56:05.429Z,15.50
2019-05-13T09:58:33.262Z,15.50
2019-05-13T10:01:00.903Z,15.50
2019-05-13T10:05:46.609Z,15.50
2019-05-13T10:08:17.269Z,15.50
2019-05-13T10:10:45.164Z,15.50
2019-05-13T10:13:15.551Z,15.50
2019-05-13T10:15:42.322Z,15.50
2019-05-13T10:18:12.375Z,15.50
2019-05-13T10:20:43.693Z,15.50
2019-05-13T10:23:12.542Z,15.50
2019-05-13T10:25:40.609Z,15.50
2019-05-13T10:28:07.845Z,15.50
2019-05-13T10:30:35.582Z,15.50
2019-05-13T10:33:03.125Z,15.50
2019-05-13T10:35:31.663Z,15.50
2019-05-13T10:37:59.584Z,15.50
2019-05-13T10:40:26.894Z,15.50
2019-05-13T10:42:54.265Z,15.50
2019-05-13T10:45:22.247Z,15.50
2019-05-13T10:47:51.905Z,15.50
2019-05-13T10:50:21.063Z,15.50
2019-05-13T10:52:48.464Z,15.50
2019-05-13T10:55:15.974Z,15.50
2019-05-13T10:57:43.337Z,15.50
2019-05-13T11:00:12.241Z,15.50
2019-05-13T11:02:42.363Z,15.50
2019-05-13T11:05:12.035Z,15.50
2019-05-13T11:07:39.113Z,15.50
2019-05-13T11:10:06.565Z,15.50
2019-05-13T11:12:33.814Z,15.50
2019-05-13T11:15:02.481Z,15.50
2019-05-13T11:19:59.417Z,15.50
2019-05-13T11:22:26.837Z,15.50
2019-05-13T11:24:54.084Z,15.50
2019-05-13T11:27:23.551Z,15.50
2019-05-13T11:29:52.322Z,15.50
2019-05-13T11:32:22.256Z,15.50
2019-05-13T11:34:49.280Z,15.50
2019-05-13T11:37:16.937Z,15.50
2019-05-13T11:39:44.145Z,15.50
2019-05-13T11:42:13.509Z,15.50
2019-05-13T11:44:42.901Z,15.50
2019-05-13T11:47:12.192Z,15.50
2019-05-13T11:49:42.335Z,15.50
2019-05-13T11:52:08.585Z,15.50
2019-05-13T11:54:35.897Z,15.50
2019-05-13T11:57:06.532Z,15.50
2019-05-13T11:59:32.933Z,15.50
2019-05-13T12:02:04.406Z,15.50
2019-05-13T12:04:33.067Z,15.50
2019-05-13T12:06:59.217Z,15.50
2019-05-13T12:09:26.528Z,15.50
2019-05-13T12:11:54.074Z,15.50
2019-05-13T12:14:42.922Z,15.50
2019-05-13T12:16:50.653Z,15.50
2019-05-13T12:19:18.499Z,15.50
2019-05-13T12:21:46.954Z,15.50
2019-05-13T12:24:14.354Z,15.50
2019-05-13T12:26:43.466Z,15.50
2019-05-13T12:29:17.842Z,15.50
2019-05-13T12:31:40.513Z,15.60
2019-05-13T12:34:08.368Z,15.60
2019-05-13T12:36:35.890Z,15.60
2019-05-13T12:39:05.366Z,15.60
2019-05-13T12:41:33.164Z,15.60
2019-05-13T12:44:01.831Z,15.60
2019-05-13T12:46:30.421Z,15.60
2019-05-13T12:48:57.849Z,15.50
2019-05-13T12:51:25.354Z,15.60
2019-05-13T12:53:52.992Z,15.60
2019-05-13T12:56:23.224Z,15.60
2019-05-13T12:58:52.046Z,15.60
2019-05-13T13:01:18.706Z,15.60
2019-05-13T13:03:46.042Z,15.60
2019-05-13T13:06:29.976Z,15.60
2019-05-13T13:08:48.544Z,15.60
2019-05-13T13:11:11.797Z,15.60
2019-05-13T13:13:58.175Z,15.60
2019-05-13T13:16:09.273Z,15.60
2019-05-13T13:18:36.649Z,15.60
2019-05-13T13:21:07.424Z,15.60
2019-05-13T13:23:34.012Z,15.60
2019-05-13T13:26:03.261Z,15.60
2019-05-13T13:28:33.999Z,15.60
2019-05-13T13:31:04.198Z,15.60
2019-05-13T13:33:33.967Z,15.60
2019-05-13T13:36:00.059Z,15.60
2019-05-13T13:38:27.666Z,15.60
2019-05-13T13:40:54.998Z,15.60
2019-05-13T13:43:24.596Z,15.60
2019-05-13T13:46:07.560Z,15.60
2019-05-13T13:48:25.735Z,15.60
2019-05-13T13:50:55.707Z,15.60
2019-05-13T13:53:25.159Z,15.60
2019-05-13T13:55:55.488Z,15.60
2019-05-13T13:58:18.605Z,15.60
2019-05-13T14:01:00.466Z,15.60
2019-05-13T14:03:16.022Z,15.60
2019-05-13T14:05:43.426Z,15.60
2019-05-13T14:06:28.716Z,15.50
2019-05-13T14:08:12.578Z,15.60
2019-05-13T14:10:41.866Z,15.60
2019-05-13T14:13:09.018Z,15.60
2019-05-13T14:15:36.290Z,15.60
2019-05-13T14:18:03.615Z,15.60
2019-05-13T14:20:32.682Z,15.60
2019-05-13T14:23:02.819Z,15.60
2019-05-13T14:25:29.189Z,15.60
2019-05-13T14:27:56.594Z,15.60
2019-05-13T14:30:24.135Z,15.60
2019-05-13T14:32:52.123Z,15.60
2019-05-13T14:35:21.826Z,15.60
2019-05-13T14:37:51.866Z,15.60
2019-05-13T14:40:22.247Z,15.60
2019-05-13T14:42:52.398Z,15.60
2019-05-13T14:45:23.671Z,15.60
2019-05-13T14:47:50.531Z,15.60
2019-05-13T14:50:21.414Z,15.60
2019-05-13T14:52:48.923Z,15.60
2019-05-13T14:55:16.755Z,15.60
2019-05-13T14:57:46.486Z,15.60
2019-05-13T15:00:15.381Z,15.60
2019-05-13T15:02:45.061Z,15.60
2019-05-13T15:05:12.861Z,15.60
2019-05-13T15:07:42.249Z,15.60
2019-05-13T15:10:10.283Z,15.60
2019-05-13T15:12:41.672Z,15.60
2019-05-13T15:15:09.535Z,15.60
2019-05-13T15:17:39.339Z,15.60
2019-05-13T15:20:07.590Z,15.60
2019-05-13T15:22:35.068Z,15.60
2019-05-13T15:25:04.367Z,15.60
2019-05-13T15:27:33.002Z,15.60
2019-05-13T15:30:16.791Z,15.60
2019-05-13T15:32:33.108Z,15.60
2019-05-13T15:35:02.448Z,15.60
2019-05-13T15:37:32.188Z,15.60
2019-05-13T15:40:02.326Z,15.60
2019-05-13T15:42:31.878Z,15.60
2019-05-13T15:45:02.132Z,15.60
2019-05-13T15:47:30.584Z,15.60
2019-05-13T15:49:58.572Z,15.60
2019-05-13T15:52:26.139Z,15.60
2019-05-13T15:54:53.582Z,15.60
2019-05-13T15:57:21.395Z,15.60
2019-05-13T15:59:49.009Z,15.60
2019-05-13T16:02:18.639Z,15.60
2019-05-13T16:04:52.645Z,15.60
2019-05-13T16:07:15.327Z,15.60
2019-05-13T16:09:42.699Z,15.60
2019-05-13T16:12:12.203Z,15.60
2019-05-13T16:14:41.444Z,15.60
2019-05-13T16:17:09.313Z,15.60
2019-05-13T16:19:36.646Z,15.60
2019-05-13T16:22:03.957Z,15.60
2019-05-13T16:24:32.123Z,15.60
2019-05-13T16:27:02.200Z,15.60
2019-05-13T16:29:31.411Z,15.60
2019-05-13T16:32:05.449Z,15.60
2019-05-13T16:34:34.404Z,15.60
2019-05-13T16:37:06.460Z,15.60
2019-05-13T16:39:34.108Z,15.60
2019-05-13T16:42:01.481Z,15.60
2019-05-13T16:44:31.202Z,15.70
2019-05-13T16:47:01.306Z,15.70
2019-05-13T16:49:28.361Z,15.80
2019-05-13T16:51:55.776Z,15.80
2019-05-13T16:54:23.168Z,15.90
2019-05-13T16:56:52.558Z,15.90
2019-05-13T16:59:21.154Z,16.00
2019-05-13T17:01:48.571Z,16.10
2019-05-13T17:04:17.635Z,16.10
2019-05-13T17:06:45.305Z,16.20
2019-05-13T17:09:18.806Z,16.20
2019-05-13T17:11:51.932Z,16.30
2019-05-13T17:14:21.579Z,16.30
2019-05-13T17:16:51.894Z,16.40
2019-05-13T17:19:20.962Z,16.40
2019-05-13T17:21:48.789Z,16.40
2019-05-13T17:24:22.580Z,16.40
2019-05-13T17:26:52.260Z,16.40
2019-05-13T17:29:21.121Z,16.50
2019-05-13T17:31:51.526Z,16.50
2019-05-13T17:34:21.161Z,16.50
2019-05-13T17:36:51.703Z,16.50
2019-05-13T17:39:21.329Z,16.50
2019-05-13T17:41:52.081Z,16.50
2019-05-13T17:44:21.949Z,16.50
2019-05-13T17:46:52.239Z,16.50
2019-05-13T17:49:22.125Z,16.50
2019-05-13T17:51:51.720Z,16.50
2019-05-13T17:54:22.028Z,16.50
2019-05-13T17:56:49.606Z,16.50
2019-05-13T17:59:17.287Z,16.50
2019-05-13T18:01:44.745Z,16.50
2019-05-13T18:04:13.598Z,16.50
2019-05-13T18:06:42.096Z,16.40
2019-05-13T18:09:11.725Z,16.40
2019-05-13T18:11:41.809Z,16.40
2019-05-13T18:14:11.418Z,16.40
2019-05-13T18:16:38.706Z,16.40
2019-05-13T18:19:06.121Z,16.30
2019-05-13T18:21:33.545Z,16.30
2019-05-13T18:24:01.459Z,16.30
2019-05-13T18:26:28.856Z,16.30
2019-05-13T18:28:56.484Z,16.30
2019-05-13T18:31:24.813Z,16.30
2019-05-13T18:33:52.841Z,16.20
2019-05-13T18:36:22.139Z,16.20
2019-05-13T18:38:49.513Z,16.20
2019-05-13T18:41:16.861Z,16.20
2019-05-13T18:43:44.399Z,16.20
2019-05-13T18:46:12.385Z,16.20
2019-05-13T18:48:57.697Z,16.20
2019-05-13T18:51:09.106Z,16.20
2019-05-13T18:53:37.782Z,16.10
2019-05-13T18:56:05.697Z,16.10
2019-05-13T18:58:33.140Z,16.10
2019-05-13T19:01:01.346Z,16.10
2019-05-13T19:03:28.897Z,16.10
2019-05-13T19:06:03.705Z,16.10
2019-05-13T19:08:32.135Z,16.10
2019-05-13T19:11:01.188Z,16.10
2019-05-13T19:13:28.661Z,16.10
2019-05-13T19:15:56.221Z,16.10
2019-05-13T19:18:23.869Z,16.10
2019-05-13T19:20:51.456Z,16.00
2019-05-13T19:23:19.020Z,16.10
2019-05-13T19:25:46.521Z,16.00
2019-05-13T19:28:14.037Z,16.00
2019-05-13T19:30:41.401Z,16.00
2019-05-13T19:33:08.885Z,16.00
2019-05-13T19:35:36.453Z,16.00
2019-05-13T19:38:03.984Z,16.00
2019-05-13T19:40:31.625Z,16.00
2019-05-13T19:43:01.483Z,16.00
2019-05-13T19:45:28.690Z,16.00
2019-05-13T19:47:56.029Z,16.00
2019-05-13T19:50:23.516Z,16.00
2019-05-13T19:52:51.877Z,16.00
2019-05-13T19:55:19.465Z,15.90
2019-05-13T19:57:47.042Z,16.00
2019-05-13T20:00:14.781Z,15.90
2019-05-13T20:02:42.301Z,15.90
2019-05-13T20:05:10.037Z,16.00
2019-05-13T20:07:41.785Z,16.00
2019-05-13T20:10:11.708Z,15.90
2019-05-13T20:12:41.806Z,16.00
2019-05-13T20:15:11.546Z,15.90
2019-05-13T20:17:41.430Z,15.90
2019-05-13T20:20:08.653Z,16.00
2019-05-13T20:22:37.188Z,16.00
2019-05-13T20:25:05.529Z,15.90
2019-05-13T20:27:32.969Z,15.90
2019-05-13T20:30:01.587Z,15.90
2019-05-13T20:32:29.581Z,15.90
2019-05-13T20:34:56.913Z,15.90
2019-05-13T20:37:24.235Z,15.90
2019-05-13T20:39:51.639Z,15.90
2019-05-13T20:42:19.095Z,15.90
2019-05-13T20:44:46.424Z,15.90
2019-05-13T20:47:13.945Z,15.90
2019-05-13T20:49:41.772Z,15.90
2019-05-13T20:52:12.741Z,15.90
2019-05-13T20:54:39.028Z,15.90
2019-05-13T20:57:07.850Z,15.90
2019-05-13T20:59:35.589Z,15.90
2019-05-13T21:02:02.985Z,15.90
2019-05-13T21:04:32.170Z,15.90
2019-05-13T21:07:01.922Z,15.90
2019-05-13T21:09:31.502Z,15.90
2019-05-13T21:11:58.288Z,15.90
2019-05-13T21:14:26.887Z,15.90
2019-05-13T21:16:54.241Z,15.90
2019-05-13T21:19:22.128Z,15.90
2019-05-13T21:21:51.098Z,15.90
2019-05-13T21:24:18.475Z,15.90
2019-05-13T21:26:45.778Z,15.90
2019-05-13T21:29:14.241Z,15.90
2019-05-13T21:31:42.060Z,15.90
2019-05-13T21:34:11.221Z,15.90
2019-05-13T21:36:41.193Z,15.90
2019-05-13T21:39:08.521Z,15.80
2019-05-13T21:41:35.869Z,15.80
2019-05-13T21:44:03.205Z,15.90
2019-05-13T21:46:30.561Z,15.90
2019-05-13T21:48:57.886Z,15.80
2019-05-13T21:51:25.424Z,15.90
2019-05-13T21:53:52.758Z,15.80
2019-05-13T21:56:22.970Z,15.90
2019-05-13T21:58:49.168Z,15.80
2019-05-13T22:01:16.737Z,15.80
2019-05-13T22:03:44.474Z,15.90
2019-05-13T22:06:11.959Z,15.90
2019-05-13T22:08:41.271Z,15.80
2019-05-13T22:11:08.680Z,15.90
2019-05-13T22:13:36.013Z,15.80
2019-05-13T22:16:03.278Z,15.80
2019-05-13T22:18:31.334Z,15.80
2019-05-13T22:21:01.409Z,15.80
2019-05-13T22:23:28.993Z,15.80
2019-05-13T22:25:56.574Z,15.80
2019-05-13T22:28:23.895Z,15.80
2019-05-13T22:30:51.765Z,15.80
2019-05-13T22:33:21.458Z,15.80
2019-05-13T22:35:52.105Z,15.80
2019-05-13T22:38:18.552Z,15.80
2019-05-13T22:40:45.873Z,15.80
2019-05-13T22:43:13.226Z,15.80
2019-05-13T22:45:41.940Z,15.80
2019-05-13T22:48:14.626Z,15.80
2019-05-13T22:50:41.475Z,15.80
2019-05-13T22:53:08.812Z,15.80
2019-05-13T22:55:36.161Z,15.80
2019-05-13T22:58:03.405Z,15.80
2019-05-13T23:00:31.707Z,15.80
2019-05-13T23:03:01.493Z,15.80
2019-05-13T23:05:28.425Z,15.80
2019-05-13T23:07:55.638Z,15.80
2019-05-13T23:10:22.952Z,15.80
2019-05-13T23:12:51.553Z,15.80
2019-05-13T23:15:21.148Z,15.80
2019-05-13T23:17:48.605Z,15.80
2019-05-13T23:20:16.068Z,15.80
2019-05-13T23:22:43.557Z,15.80
2019-05-13T23:25:12.175Z,15.80
2019-05-13T23:27:41.499Z,15.80
2019-05-13T23:30:11.704Z,15.80
2019-05-13T23:32:40.055Z,15.80
2019-05-13T23:35:07.577Z,15.80
2019-05-13T23:37:35.053Z,15.80
2019-05-13T23:40:02.390Z,15.80
2019-05-13T23:42:31.789Z,15.80
2019-05-13T23:44:59.024Z,15.80
2019-05-13T23:47:26.350Z,15.80
2019-05-13T23:49:53.674Z,15.80
2019-05-13T23:52:21.989Z,15.80
2019-05-13T23:54:51.629Z,15.80
2019-05-13T23:57:19.085Z,15.80
2019-05-13T23:59:46.633Z,15.80
